createdAt,value
2023-04-06T00:02:10.074Z,0.50
2023-04-06T00:04:36.697Z,0.50
2023-04-06T00:07:03.366Z,0.40
2023-04-06T00:09:29.981Z,0.30
2023-04-06T00:11:56.567Z,0.20
2023-04-06T00:14:23.136Z,0.20
2023-04-06T00:16:49.729Z,0.30
2023-04-06T00:19:16.354Z,0.30
2023-04-06T00:21:42.954Z,0.40
2023-04-06T00:24:09.847Z,0.40
2023-04-06T00:26:36.437Z,0.30
2023-04-06T00:29:02.994Z,0.30
2023-04-06T00:31:29.652Z,0.20
2023-04-06T00:33:56.333Z,0.20
2023-04-06T00:36:22.945Z,0.30
2023-04-06T00:38:49.648Z,0.30
2023-04-06T00:41:16.264Z,0.20
2023-04-06T00:43:42.877Z,0.10
2023-04-06T00:46:09.591Z,0.10
2023-04-06T00:48:36.460Z,0.10
2023-04-06T00:51:03.084Z,0.00
2023-04-06T00:53:29.664Z,0.00
2023-04-06T00:55:56.285Z,0.00
2023-04-06T00:58:22.924Z,0.00
2023-04-06T01:00:49.843Z,0.00
2023-04-06T01:03:16.429Z,0.00
2023-04-06T01:05:43.124Z,0.00
2023-04-06T01:08:09.736Z,0.00
2023-04-06T01:10:36.374Z,0.00
2023-04-06T01:13:03.006Z,0.00
2023-04-06T01:15:30.725Z,0.00
2023-04-06T01:17:57.330Z,0.00
2023-04-06T01:20:23.952Z,0.00
2023-04-06T01:22:50.549Z,-0.10
2023-04-06T01:25:17.325Z,-0.10
2023-04-06T01:27:43.931Z,-0.10
2023-04-06T01:30:10.832Z,-0.10
2023-04-06T01:32:37.528Z,-0.10
2023-04-06T01:35:04.344Z,-0.10
2023-04-06T01:37:30.955Z,-0.20
2023-04-06T01:39:57.596Z,-0.30
2023-04-06T01:42:24.181Z,-0.20
2023-04-06T01:44:50.783Z,-0.20
2023-04-06T01:47:17.370Z,-0.20
2023-04-06T01:49:43.995Z,-0.30
2023-04-06T01:52:10.607Z,-0.30
2023-04-06T01:54:37.229Z,-0.30
2023-04-06T01:57:03.844Z,-0.30
2023-04-06T01:59:30.508Z,-0.30
2023-04-06T02:01:57.214Z,-0.30
2023-04-06T02:04:23.815Z,-0.30
2023-04-06T02:06:52.945Z,-0.40
2023-04-06T02:09:19.538Z,-0.40
2023-04-06T02:11:46.138Z,-0.40
2023-04-06T02:14:12.715Z,-0.50
2023-04-06T02:16:39.334Z,-0.50
2023-04-06T02:19:06.049Z,-0.50
2023-04-06T02:21:32.813Z,-0.40
2023-04-06T02:23:59.404Z,-0.50
2023-04-06T02:26:25.992Z,-0.50
2023-04-06T02:28:52.626Z,-0.50
2023-04-06T02:31:19.295Z,-0.60
2023-04-06T02:33:45.906Z,-0.60
2023-04-06T02:36:12.519Z,-0.70
2023-04-06T02:38:39.117Z,-0.70
2023-04-06T02:41:05.734Z,-0.70
2023-04-06T02:43:32.365Z,-0.80
2023-04-06T02:45:59.024Z,-0.90
2023-04-06T02:48:25.628Z,-1.00
2023-04-06T02:50:52.210Z,-1.00
2023-04-06T02:53:18.805Z,-1.00
2023-04-06T02:55:46.562Z,-0.90
2023-04-06T02:58:13.179Z,-0.90
2023-04-06T03:00:39.773Z,-0.80
2023-04-06T03:03:06.403Z,-0.80
2023-04-06T03:05:33.090Z,-0.80
2023-04-06T03:07:59.654Z,-0.80
2023-04-06T03:10:26.250Z,-0.80
2023-04-06T03:12:52.855Z,-0.80
2023-04-06T03:15:19.540Z,-0.90
2023-04-06T03:17:46.176Z,-0.90
2023-04-06T03:20:13.143Z,-0.90
2023-04-06T03:22:39.718Z,-0.90
2023-04-06T03:25:06.721Z,-0.90
2023-04-06T03:27:33.325Z,-1.00
2023-04-06T03:29:59.905Z,-1.00
2023-04-06T03:32:26.537Z,-1.00
2023-04-06T03:34:53.158Z,-1.00
2023-04-06T03:37:19.738Z,-1.00
2023-04-06T03:39:46.314Z,-1.00
2023-04-06T03:42:12.945Z,-1.00
2023-04-06T03:44:39.539Z,-1.00
2023-04-06T03:47:06.116Z,-1.10
2023-04-06T03:49:32.721Z,-1.10
2023-04-06T03:51:59.326Z,-1.10
2023-04-06T03:54:25.917Z,-1.10
2023-04-06T03:56:52.520Z,-1.20
2023-04-06T03:59:19.112Z,-1.30
2023-04-06T04:01:45.737Z,-1.40
2023-04-06T04:04:12.322Z,-1.50
2023-04-06T04:06:38.978Z,-1.50
2023-04-06T04:09:05.577Z,-1.60
2023-04-06T04:11:32.209Z,-1.60
2023-04-06T04:13:58.772Z,-1.70
2023-04-06T04:16:25.454Z,-1.80
2023-04-06T04:18:52.135Z,-1.70
2023-04-06T04:21:18.769Z,-1.60
2023-04-06T04:23:45.376Z,-1.60
2023-04-06T04:26:12.025Z,-1.50
2023-04-06T04:28:38.605Z,-1.50
2023-04-06T04:31:05.265Z,-1.50
2023-04-06T04:33:34.664Z,-1.50
2023-04-06T04:36:01.289Z,-1.50
2023-04-06T04:38:27.885Z,-1.50
2023-04-06T04:40:54.470Z,-1.40
2023-04-06T04:43:21.043Z,-1.50
2023-04-06T04:45:47.818Z,-1.50
2023-04-06T04:48:14.467Z,-1.50
2023-04-06T04:50:41.086Z,-1.50
2023-04-06T04:53:07.662Z,-1.40
2023-04-06T04:55:34.365Z,-1.40
2023-04-06T04:58:00.923Z,-1.40
2023-04-06T05:00:27.498Z,-1.40
2023-04-06T05:02:54.167Z,-1.50
2023-04-06T05:05:20.836Z,-1.40
2023-04-06T05:07:47.435Z,-1.40
2023-04-06T05:10:14.057Z,-1.40
2023-04-06T05:12:40.866Z,-1.40
2023-04-06T05:15:07.919Z,-1.40
2023-04-06T05:17:34.813Z,-1.50
2023-04-06T05:20:01.510Z,-1.50
2023-04-06T05:22:28.073Z,-1.60
2023-04-06T05:24:54.698Z,-1.60
2023-04-06T05:27:21.271Z,-1.60
2023-04-06T05:29:47.918Z,-1.50
2023-04-06T05:32:14.540Z,-1.40
2023-04-06T05:34:41.320Z,-1.30
2023-04-06T05:37:07.886Z,-1.10
2023-04-06T05:39:34.487Z,-1.10
2023-04-06T05:42:04.912Z,-0.90
2023-04-06T05:44:31.474Z,-0.80
2023-04-06T05:46:58.209Z,-0.60
2023-04-06T05:49:24.915Z,-0.50
2023-04-06T05:51:51.605Z,-0.40
2023-04-06T05:54:18.217Z,-0.30
2023-04-06T05:56:44.803Z,-0.20
2023-04-06T05:59:11.520Z,0.00
2023-04-06T06:01:38.297Z,0.30
2023-04-06T06:04:04.975Z,0.30
2023-04-06T06:06:31.544Z,0.30
2023-04-06T06:08:58.144Z,0.30
2023-04-06T06:11:24.767Z,0.30
2023-04-06T06:13:51.381Z,0.40
2023-04-06T06:16:19.320Z,0.40
2023-04-06T06:18:46.127Z,0.60
2023-04-06T06:21:12.732Z,0.90
2023-04-06T06:23:39.771Z,1.20
2023-04-06T06:26:06.699Z,1.40
2023-04-06T06:28:33.406Z,1.60
2023-04-06T06:31:00.035Z,1.60
2023-04-06T06:33:26.646Z,1.80
2023-04-06T06:35:53.295Z,2.00
2023-04-06T06:38:21.499Z,2.20
2023-04-06T06:40:50.036Z,2.30
2023-04-06T06:43:16.677Z,2.50
2023-04-06T06:45:43.399Z,2.60
2023-04-06T06:48:10.108Z,2.60
2023-04-06T06:50:36.767Z,2.80
2023-04-06T06:53:03.644Z,2.80
2023-04-06T06:55:30.234Z,2.90
2023-04-06T06:57:56.912Z,3.00
2023-04-06T07:00:23.597Z,3.10
2023-04-06T07:02:50.327Z,3.30
2023-04-06T07:07:50.896Z,3.50
2023-04-06T07:10:17.530Z,3.70
2023-04-06T07:12:44.176Z,4.00
2023-04-06T07:15:11.119Z,4.10
2023-04-06T07:17:37.821Z,4.40
2023-04-06T07:20:04.880Z,4.50
2023-04-06T07:22:31.536Z,4.60
2023-04-06T07:24:59.028Z,4.80
2023-04-06T07:27:26.787Z,4.90
2023-04-06T07:29:53.418Z,5.00
2023-04-06T07:32:20.048Z,5.00
2023-04-06T07:34:46.662Z,5.10
2023-04-06T07:37:13.378Z,5.50
2023-04-06T07:39:39.997Z,5.60
2023-04-06T07:42:06.821Z,5.70
2023-04-06T07:44:33.507Z,5.60
2023-04-06T07:47:00.144Z,5.60
2023-04-06T07:49:26.789Z,5.60
2023-04-06T07:51:53.387Z,5.70
2023-04-06T07:54:19.951Z,5.80
2023-04-06T07:56:46.523Z,5.70
2023-04-06T07:59:13.147Z,5.90
2023-04-06T08:01:42.597Z,6.10
2023-04-06T08:04:09.511Z,6.30
2023-04-06T08:06:36.379Z,6.50
2023-04-06T08:09:03.369Z,6.40
2023-04-06T08:11:30.264Z,6.40
2023-04-06T08:13:57.817Z,6.30
2023-04-06T08:16:25.096Z,6.40
2023-04-06T08:18:51.783Z,6.50
2023-04-06T08:21:18.732Z,6.50
2023-04-06T08:23:45.295Z,6.70
2023-04-06T08:26:11.892Z,6.70
2023-04-06T08:28:39.187Z,6.80
2023-04-06T08:31:06.992Z,7.10
2023-04-06T08:33:34.635Z,7.40
2023-04-06T08:36:08.255Z,7.50
2023-04-06T08:38:34.938Z,7.60
2023-04-06T08:41:01.549Z,7.70
2023-04-06T08:43:29.346Z,7.70
2023-04-06T08:45:56.056Z,7.60
2023-04-06T08:48:22.764Z,7.50
2023-04-06T08:50:49.569Z,7.60
2023-04-06T08:53:17.272Z,7.70
2023-04-06T08:55:45.014Z,7.90
2023-04-06T08:58:11.675Z,7.90
2023-04-06T09:00:40.816Z,8.20
2023-04-06T09:03:08.896Z,8.20
2023-04-06T09:05:36.543Z,8.20
2023-04-06T09:08:03.482Z,8.30
2023-04-06T09:10:30.338Z,8.20
2023-04-06T09:13:06.989Z,8.60
2023-04-06T09:15:33.567Z,8.80
2023-04-06T09:18:00.335Z,9.00
2023-04-06T09:20:27.538Z,9.30
2023-04-06T09:22:54.383Z,9.30
2023-04-06T09:25:22.765Z,9.40
2023-04-06T09:27:58.852Z,9.20
2023-04-06T09:30:25.521Z,9.30
2023-04-06T09:32:57.559Z,9.40
2023-04-06T09:35:25.120Z,9.50
2023-04-06T09:37:52.908Z,9.50
2023-04-06T09:40:20.351Z,9.50
2023-04-06T09:42:48.431Z,9.80
2023-04-06T09:45:15.526Z,10.10
2023-04-06T09:47:46.736Z,10.30
2023-04-06T09:50:14.848Z,10.40
2023-04-06T09:52:55.045Z,10.50
2023-04-06T09:55:31.416Z,10.40
2023-04-06T09:58:09.315Z,10.60
2023-04-06T10:00:48.931Z,10.70
2023-04-06T10:03:42.752Z,11.00
2023-04-06T10:06:13.760Z,11.20
2023-04-06T10:08:41.834Z,11.50
2023-04-06T10:11:10.254Z,11.40
2023-04-06T10:13:36.894Z,11.50
2023-04-06T10:16:04.663Z,11.50
2023-04-06T10:18:31.489Z,11.60
2023-04-06T10:21:15.724Z,11.50
2023-04-06T10:23:49.935Z,11.30
2023-04-06T10:26:20.541Z,11.70
2023-04-06T10:28:48.928Z,11.80
2023-04-06T10:31:16.089Z,11.90
2023-04-06T10:33:42.777Z,12.10
2023-04-06T10:36:16.621Z,12.20
2023-04-06T10:38:43.569Z,12.30
2023-04-06T10:41:11.580Z,12.40
2023-04-06T10:43:40.643Z,12.30
2023-04-06T10:46:09.079Z,12.10
2023-04-06T10:48:39.556Z,12.10
2023-04-06T10:51:13.717Z,12.00
2023-04-06T10:53:43.193Z,11.70
2023-04-06T10:56:15.019Z,11.50
2023-04-06T10:58:55.182Z,11.20
2023-04-06T11:01:23.761Z,11.10
2023-04-06T11:03:55.268Z,11.00
2023-04-06T11:06:24.329Z,11.00
2023-04-06T11:08:52.166Z,11.50
2023-04-06T11:11:20.880Z,11.70
2023-04-06T11:13:51.100Z,12.00
2023-04-06T11:16:20.024Z,11.80
2023-04-06T11:18:55.868Z,11.60
2023-04-06T11:21:34.069Z,11.40
2023-04-06T11:24:12.559Z,11.20
2023-04-06T11:26:45.011Z,11.40
2023-04-06T11:29:19.126Z,11.70
2023-04-06T11:31:50.969Z,11.70
2023-04-06T11:34:20.317Z,11.40
2023-04-06T11:36:48.608Z,11.20
2023-04-06T11:39:20.569Z,11.10
2023-04-06T11:41:51.214Z,11.10
2023-04-06T11:44:33.014Z,11.50
2023-04-06T11:47:00.225Z,11.60
2023-04-06T11:49:30.776Z,11.40
2023-04-06T11:51:58.919Z,11.40
2023-04-06T11:54:37.217Z,11.90
2023-04-06T11:57:07.113Z,12.40
2023-04-06T11:59:33.979Z,12.20
2023-04-06T12:02:01.762Z,12.10
2023-04-06T12:04:28.403Z,12.00
2023-04-06T12:06:55.807Z,11.70
2023-04-06T12:09:22.678Z,12.10
2023-04-06T12:11:49.328Z,12.30
2023-04-06T12:14:16.189Z,12.20
2023-04-06T12:16:43.087Z,12.40
2023-04-06T12:19:09.673Z,12.80
2023-04-06T12:21:36.572Z,13.10
2023-04-06T12:24:03.216Z,13.10
2023-04-06T12:26:31.371Z,12.80
2023-04-06T12:28:58.382Z,12.60
2023-04-06T12:31:25.003Z,12.60
2023-04-06T12:33:51.960Z,12.30
2023-04-06T12:36:20.248Z,11.90
2023-04-06T12:38:48.579Z,11.70
2023-04-06T12:41:15.441Z,11.50
2023-04-06T12:43:42.773Z,11.60
2023-04-06T12:46:10.018Z,11.90
2023-04-06T12:48:36.724Z,12.10
2023-04-06T12:51:05.707Z,12.60
2023-04-06T12:53:33.323Z,12.70
2023-04-06T12:56:00.326Z,13.00
2023-04-06T12:58:27.175Z,13.20
2023-04-06T13:00:53.986Z,13.50
2023-04-06T13:03:22.960Z,13.70
2023-04-06T13:05:50.950Z,13.40
2023-04-06T13:08:18.462Z,13.60
2023-04-06T13:10:47.540Z,13.90
2023-04-06T13:13:14.699Z,13.70
2023-04-06T13:15:41.364Z,14.20
2023-04-06T13:18:08.821Z,14.20
2023-04-06T13:20:36.019Z,14.10
2023-04-06T13:23:02.755Z,13.90
2023-04-06T13:25:30.297Z,13.60
2023-04-06T13:27:56.893Z,13.60
2023-04-06T13:30:23.776Z,13.70
2023-04-06T13:32:50.528Z,13.60
2023-04-06T13:35:17.837Z,13.70
2023-04-06T13:37:45.061Z,13.90
2023-04-06T13:40:12.057Z,14.10
2023-04-06T13:42:38.721Z,14.20
2023-04-06T13:45:05.916Z,14.10
2023-04-06T13:47:33.848Z,14.40
2023-04-06T13:50:01.091Z,14.30
2023-04-06T13:52:27.702Z,14.50
2023-04-06T13:54:54.387Z,14.00
2023-04-06T13:57:20.948Z,14.00
2023-04-06T13:59:47.581Z,14.00
2023-04-06T14:02:14.539Z,13.90
2023-04-06T14:04:41.229Z,13.80
2023-04-06T14:07:08.073Z,14.20
2023-04-06T14:09:34.662Z,14.30
2023-04-06T14:12:01.433Z,14.20
2023-04-06T14:14:28.737Z,13.90
2023-04-06T14:16:55.350Z,13.70
2023-04-06T14:19:21.963Z,13.50
2023-04-06T14:21:49.235Z,13.50
2023-04-06T14:24:16.297Z,13.50
2023-04-06T14:26:43.057Z,13.90
2023-04-06T14:29:09.998Z,14.20
2023-04-06T14:31:36.797Z,14.20
2023-04-06T14:34:04.278Z,14.10
2023-04-06T14:36:34.466Z,14.00
2023-04-06T14:39:01.080Z,14.30
2023-04-06T14:41:27.755Z,13.90
2023-04-06T14:43:54.530Z,13.90
2023-04-06T14:46:21.285Z,13.70
2023-04-06T14:48:48.250Z,13.60
2023-04-06T14:51:14.849Z,13.30
2023-04-06T14:53:41.410Z,13.30
2023-04-06T14:56:08.083Z,13.10
2023-04-06T14:58:34.667Z,12.90
2023-04-06T15:01:02.423Z,12.70
2023-04-06T15:03:30.357Z,12.60
2023-04-06T15:05:58.041Z,12.60
2023-04-06T15:08:24.885Z,12.80
2023-04-06T15:10:52.168Z,12.60
2023-04-06T15:13:19.565Z,12.50
2023-04-06T15:15:46.150Z,12.50
2023-04-06T15:18:13.125Z,12.70
2023-04-06T15:20:39.766Z,12.90
2023-04-06T15:23:06.324Z,13.00
2023-04-06T15:25:32.853Z,13.20
2023-04-06T15:28:00.548Z,13.50
2023-04-06T15:30:28.302Z,13.50
2023-04-06T15:33:00.428Z,13.50
2023-04-06T15:35:27.573Z,13.50
2023-04-06T15:37:54.173Z,13.60
2023-04-06T15:40:20.829Z,13.70
2023-04-06T15:42:47.408Z,13.60
2023-04-06T15:45:14.528Z,13.80
2023-04-06T15:47:42.490Z,13.70
2023-04-06T15:50:10.061Z,13.50
2023-04-06T15:52:37.876Z,13.40
2023-04-06T15:55:07.154Z,13.40
2023-04-06T15:57:34.199Z,13.70
2023-04-06T16:00:01.065Z,13.70
2023-04-06T16:02:28.620Z,13.80
2023-04-06T16:04:58.942Z,13.40
2023-04-06T16:07:25.518Z,13.30
2023-04-06T16:09:52.124Z,13.10
2023-04-06T16:12:19.610Z,13.10
2023-04-06T16:14:46.831Z,13.10
2023-04-06T16:17:13.861Z,13.10
2023-04-06T16:19:40.515Z,13.10
2023-04-06T16:22:07.076Z,13.10
2023-04-06T16:24:33.828Z,13.10
2023-04-06T16:27:00.542Z,13.10
2023-04-06T16:29:27.620Z,12.90
2023-04-06T16:31:54.603Z,12.70
2023-04-06T16:34:21.231Z,12.60
2023-04-06T16:36:47.880Z,12.50
2023-04-06T16:39:14.494Z,12.30
2023-04-06T16:41:41.066Z,12.20
2023-04-06T16:44:07.664Z,11.90
2023-04-06T16:46:36.351Z,11.70
2023-04-06T16:49:05.232Z,11.60
2023-04-06T16:51:31.832Z,11.60
2023-04-06T16:53:59.287Z,11.60
2023-04-06T16:56:25.889Z,11.60
2023-04-06T16:58:52.454Z,11.50
2023-04-06T17:01:24.507Z,11.40
2023-04-06T17:03:51.636Z,11.30
2023-04-06T17:06:18.590Z,11.20
2023-04-06T17:08:46.848Z,11.20
2023-04-06T17:11:17.200Z,11.00
2023-04-06T17:13:49.165Z,10.90
2023-04-06T17:16:15.926Z,10.70
2023-04-06T17:18:42.557Z,10.70
2023-04-06T17:21:10.327Z,10.60
2023-04-06T17:23:37.347Z,10.40
2023-04-06T17:26:05.506Z,10.30
2023-04-06T17:28:32.638Z,10.30
2023-04-06T17:31:00.121Z,10.20
2023-04-06T17:33:27.765Z,10.10
2023-04-06T17:35:54.652Z,10.00
2023-04-06T17:38:21.226Z,9.80
2023-04-06T17:40:47.807Z,9.70
2023-04-06T17:43:15.331Z,9.60
2023-04-06T17:45:41.930Z,9.50
2023-04-06T17:48:08.545Z,9.40
2023-04-06T17:50:38.181Z,9.30
2023-04-06T17:53:05.151Z,9.20
2023-04-06T17:55:31.745Z,9.20
2023-04-06T17:57:58.487Z,9.10
2023-04-06T18:00:25.108Z,9.10
2023-04-06T18:02:51.787Z,9.00
2023-04-06T18:05:19.178Z,8.90
2023-04-06T18:07:45.734Z,8.70
2023-04-06T18:10:12.503Z,8.70
2023-04-06T18:12:39.241Z,8.60
2023-04-06T18:15:06.777Z,8.50
2023-04-06T18:17:34.509Z,8.40
2023-04-06T18:20:01.206Z,8.30
2023-04-06T18:22:27.773Z,8.20
2023-04-06T18:24:54.560Z,8.00
2023-04-06T18:27:21.387Z,7.90
2023-04-06T18:29:48.182Z,7.90
2023-04-06T18:32:15.270Z,7.70
2023-04-06T18:34:42.122Z,7.60
2023-04-06T18:37:08.711Z,7.50
2023-04-06T18:39:35.770Z,7.40
2023-04-06T18:42:02.588Z,7.20
2023-04-06T18:44:30.097Z,7.10
2023-04-06T18:46:56.827Z,7.10
2023-04-06T18:49:23.732Z,7.10
2023-04-06T18:51:50.309Z,7.00
2023-04-06T18:54:16.877Z,7.00
2023-04-06T18:56:43.526Z,6.90
2023-04-06T18:59:10.450Z,6.90
2023-04-06T19:01:37.266Z,6.80
2023-04-06T19:04:04.044Z,6.70
2023-04-06T19:06:30.834Z,6.60
2023-04-06T19:08:57.563Z,6.60
2023-04-06T19:11:24.354Z,6.50
2023-04-06T19:13:51.011Z,6.50
2023-04-06T19:16:18.250Z,6.30
2023-04-06T19:18:45.155Z,6.30
2023-04-06T19:21:19.309Z,6.20
2023-04-06T19:23:46.980Z,6.30
2023-04-06T19:26:14.928Z,6.40
2023-04-06T19:28:42.080Z,6.40
2023-04-06T19:31:10.523Z,6.50
2023-04-06T19:33:37.800Z,6.50
2023-04-06T19:36:05.448Z,6.50
2023-04-06T19:38:32.957Z,6.40
2023-04-06T19:41:00.346Z,6.40
2023-04-06T19:43:27.252Z,6.30
2023-04-06T19:45:54.067Z,6.30
2023-04-06T19:48:20.713Z,6.20
2023-04-06T19:50:47.448Z,6.10
2023-04-06T19:53:14.051Z,6.10
2023-04-06T19:55:40.682Z,6.20
2023-04-06T19:58:07.348Z,6.20
2023-04-06T20:00:33.984Z,6.20
2023-04-06T20:03:00.707Z,6.10
2023-04-06T20:05:27.506Z,6.10
2023-04-06T20:07:54.108Z,6.00
2023-04-06T20:10:20.715Z,6.00
2023-04-06T20:12:48.614Z,6.00
2023-04-06T20:15:15.183Z,6.00
2023-04-06T20:17:41.866Z,6.00
2023-04-06T20:20:09.740Z,6.00
2023-04-06T20:22:36.314Z,6.00
2023-04-06T20:25:03.308Z,6.00
2023-04-06T20:27:29.877Z,5.90
2023-04-06T20:29:56.546Z,5.90
2023-04-06T20:32:23.229Z,5.90
2023-04-06T20:34:50.212Z,5.80
2023-04-06T20:37:16.908Z,5.90
2023-04-06T20:39:43.496Z,5.90
2023-04-06T20:42:10.060Z,5.80
2023-04-06T20:44:36.661Z,5.80
2023-04-06T20:47:03.385Z,5.70
2023-04-06T20:49:30.002Z,5.60
2023-04-06T20:51:57.124Z,5.60
2023-04-06T20:54:23.707Z,5.60
2023-04-06T20:56:50.260Z,5.70
2023-04-06T20:59:16.835Z,5.70
2023-04-06T21:01:43.529Z,5.70
2023-04-06T21:04:10.347Z,5.80
2023-04-06T21:06:37.001Z,5.80
2023-04-06T21:09:03.694Z,5.80
2023-04-06T21:11:30.274Z,5.70
2023-04-06T21:13:56.956Z,5.60
2023-04-06T21:16:23.589Z,5.50
2023-04-06T21:18:50.179Z,5.50
2023-04-06T21:21:16.766Z,5.50
2023-04-06T21:23:43.331Z,5.50
2023-04-06T21:26:12.581Z,5.60
2023-04-06T21:28:39.154Z,5.60
2023-04-06T21:31:08.869Z,5.60
2023-04-06T21:33:35.651Z,5.60
2023-04-06T21:36:06.569Z,5.60
2023-04-06T21:38:33.381Z,5.60
2023-04-06T21:40:59.952Z,5.70
2023-04-06T21:43:26.638Z,5.70
2023-04-06T21:45:53.344Z,5.70
2023-04-06T21:48:20.336Z,5.70
2023-04-06T21:50:46.938Z,5.50
2023-04-06T21:53:13.480Z,5.50
2023-04-06T21:55:46.991Z,5.50
2023-04-06T21:58:14.522Z,5.50
2023-04-06T22:00:41.611Z,5.40
2023-04-06T22:03:08.321Z,5.40
2023-04-06T22:05:37.494Z,5.30
2023-04-06T22:08:04.221Z,5.30
2023-04-06T22:10:30.846Z,5.20
2023-04-06T22:12:57.422Z,5.20
2023-04-06T22:15:23.982Z,5.20
2023-04-06T22:17:50.572Z,5.20
2023-04-06T22:20:17.296Z,5.20
2023-04-06T22:22:43.936Z,5.30
2023-04-06T22:25:10.521Z,5.20
2023-04-06T22:27:37.082Z,5.20
2023-04-06T22:30:04.506Z,5.20
2023-04-06T22:32:31.229Z,5.10
2023-04-06T22:34:57.840Z,5.10
2023-04-06T22:37:24.406Z,5.20
2023-04-06T22:39:50.982Z,5.10
2023-04-06T22:42:17.575Z,5.10
2023-04-06T22:44:44.144Z,5.10
2023-04-06T22:47:10.761Z,5.10
2023-04-06T22:49:37.644Z,5.10
2023-04-06T22:52:04.212Z,5.10
2023-04-06T22:54:30.813Z,5.10
2023-04-06T22:56:57.394Z,4.90
2023-04-06T22:59:24.026Z,4.90
2023-04-06T23:01:50.768Z,4.80
2023-04-06T23:04:17.910Z,4.80
2023-04-06T23:06:44.826Z,4.90
2023-04-06T23:09:11.382Z,4.80
2023-04-06T23:11:37.965Z,4.70
2023-04-06T23:14:04.551Z,4.70
2023-04-06T23:16:31.196Z,4.70
2023-04-06T23:18:57.850Z,4.70
2023-04-06T23:21:24.403Z,4.70
2023-04-06T23:23:50.949Z,4.70
2023-04-06T23:26:17.514Z,4.80
2023-04-06T23:28:44.056Z,4.70
2023-04-06T23:31:10.615Z,4.70
2023-04-06T23:33:37.216Z,4.70
2023-04-06T23:36:03.983Z,4.50
2023-04-06T23:38:30.552Z,4.50
2023-04-06T23:40:57.416Z,4.50
2023-04-06T23:43:24.064Z,4.40
2023-04-06T23:45:50.638Z,4.40
2023-04-06T23:48:17.284Z,4.40
2023-04-06T23:50:43.889Z,4.30
2023-04-06T23:53:10.579Z,4.30
2023-04-06T23:55:37.295Z,4.20
2023-04-06T23:58:03.838Z,4.20
